Terminal Aerodrome Forecast
Issued by NWS

Home | Current Version | Previous Version | Text Only | Print | Product List | Glossary On
Versions: 1 2 3 4 5 6 7 8 9 10 11 12 13 14
914
FTAK31 PAJN 261127
TAFAJN
TAF
PAJN 261127Z 2612/2712 07007KT P6SM VCSH FEW004 BKN026 OVC045
     FM261900 10005KT P6SM VCSH FEW005 BKN060
     FM262300 09006KT P6SM VCSH SCT030 OVC050
     FM270700 08004KT P6SM VCSH BKN030 OVC050=

USA.gov is the U.S. government's official web portal to all federal, state and local government web resources and services.